Woods Cross Roads, VA

8:11 PM EDT on April 21, 2015 (GMT -0400)
Gloucester Courthouse VA | | Change Station
CLOSE
Current Station
Personal Weather Station
Location: Gloucester, VA
Elevation: 89 ft
Nearby Weather Stations

Elev 89 ft 37.42 °N, 76.53 °W | Updated 16 seconds ago

Clear
Clear
63.5 °F
Feels Like 63.5 °F
N
0.0
Wind Variable Wind from SW
Gusts 0.0 mph

Today
High -- | Low -- °F
--% Chance of Precip.
Yesterday
High -- | Low -- °F
Precip. -- in
6:23 AM 7:47 PM
Waxing Crescent, 13% visible
Pressure 29.81 in
Visibility 10.0 miles
Clouds Clear
Dew Point 41 °F
Humidity 44%
Rainfall 0.00 in
Snow Depth Not available.
UV 10.0 out of 12
Pollen 10.40 out of 12
Air Quality Not available.
Flu Activity Local Activity
METAR KFYJ 212355Z AUTO 25003KT 10SM CLR 18/00 A2981 RMK AO2 T01840001 10228 20180

More Conditions Fewer Conditions

Pressure 29.81 in
Visibility 10.0 miles
Clouds Clear
Dew Point 41 °F
Humidity 44%
Rainfall 0.00 in
Snow Depth Not available.
UV 10.0 out of 12
Pollen 10.40 out of 12
Air Quality Not available.
Flu Activity Local Activity
METAR KFYJ 212355Z AUTO 25003KT 10SM CLR 18/00 A2981 RMK AO2 T01840001 10228 20180

More Conditions Fewer Conditions

10-Day Weather Forecast

Almanac

Astronomy

Apr. 21, 2015 Rise Set
Actual Time
Civil Twilight
Nautical Twilight
Astronomical Twilight
Moon
Length of Visible Light
Length of Day
Tomorrow will be .
, % of the Moon is Illuminated

Today's Extremes

State Highs State Lows

Community

WunderPhotos

Upload Photos

1,815,586 photos uploaded!

WunderBlogs® & News

Nearby

Air Quality

  Air Quality AQ Index Pollutant
Not available.

Snow Depth

Station Depth Elevation

Earthquake Activity

City Distance Mag. Time & Date
Minimum magnitude displayed is 2.5.

Coastal Water Temperatures

Place Temperature

Stations

Nearby Weather Stations

Station Location Temp. Windchill Dew Point Humidity Wind Precip. Elev Updated Type